Time;durP1;ratioP1;P1;durP2;ratioP2;P2;SDS_P1;SDS_P2;PMS_P1;PMS_P2;Temp;Humidity;BMP_temperature;BMP_pressure;BME280_temperature;BME280_humidity;BME280_pressure;Samples;Min_cycle;Max_cycle;Signal;HPM_P1;HPM_P2
2022/10/16 00:00:42;;;;;;;5.45;1.20;;;11.90;99.90;;;;;;5075354;28;20127;-81
2022/10/16 00:03:09;;;;;;;5.25;1.20;;;11.90;99.90;;;;;;5091890;28;20041;-81
2022/10/16 00:05:44;;;;;;;2.65;1.20;;;11.90;99.90;;;;;;5094126;28;20101;-81
2022/10/16 00:08:12;;;;;;;6.10;1.60;;;11.90;99.90;;;;;;5112069;28;20525;-81
2022/10/16 00:10:39;;;;;;;4.70;1.27;;;11.90;99.90;;;;;;5062398;28;20057;-81
2022/10/16 00:13:06;;;;;;;8.05;1.27;;;11.90;99.90;;;;;;5111903;28;20527;-81
2022/10/16 00:15:38;;;;;;;4.30;1.20;;;11.80;99.90;;;;;;5089713;28;20086;-81
2022/10/16 00:18:05;;;;;;;4.47;1.30;;;11.90;99.90;;;;;;5075903;28;20044;-81
2022/10/16 00:20:36;;;;;;;6.90;1.30;;;11.80;99.90;;;;;;5091552;28;20542;-81
2022/10/16 00:23:04;;;;;;;4.80;1.33;;;11.80;99.90;;;;;;5075363;28;20086;-81
2022/10/16 00:25:32;;;;;;;3.83;1.27;;;11.80;99.90;;;;;;5078465;28;20035;-81
2022/10/16 00:28:00;;;;;;;2.85;1.20;;;11.80;99.90;;;;;;5111782;28;20123;-81
2022/10/16 00:30:27;;;;;;;3.83;1.10;;;11.70;99.90;;;;;;5128108;28;20522;-81
2022/10/16 00:32:55;;;;;;;6.00;1.50;;;11.70;99.90;;;;;;5112102;28;20131;-81
2022/10/16 00:35:22;;;;;;;6.60;1.27;;;11.70;99.90;;;;;;5128598;28;20065;-81
2022/10/16 00:37:48;;;;;;;3.58;1.50;;;11.60;99.90;;;;;;5094788;28;20043;-83
2022/10/16 00:40:15;;;;;;;7.53;1.30;;;11.60;99.90;;;;;;5094917;28;20032;-82
2022/10/16 00:42:42;;;;;;;8.20;1.40;;;11.60;99.90;;;;;;5094700;28;20047;-82
2022/10/16 00:45:09;;;;;;;5.70;1.40;;;11.60;99.90;;;;;;5094888;28;20044;-82
2022/10/16 00:47:44;;;;;;;3.38;1.10;;;11.60;99.90;;;;;;5094444;28;20043;-81
2022/10/16 00:50:21;;;;;;;3.65;1.48;;;11.60;99.90;;;;;;5111325;28;20047;-82
2022/10/16 00:52:51;;;;;;;11.77;1.92;;;11.60;99.90;;;;;;5127793;28;20042;-82
2022/10/16 00:55:19;;;;;;;8.45;1.45;;;11.60;99.90;;;;;;5110515;28;20399;-82
2022/10/16 00:57:46;;;;;;;5.40;1.30;;;11.60;99.90;;;;;;5094415;28;20048;-82
2022/10/16 01:00:17;;;;;;;2.92;1.02;;;11.60;99.90;;;;;;5111070;28;20043;-82
2022/10/16 01:02:44;;;;;;;4.15;1.50;;;11.50;99.90;;;;;;5110780;28;20046;-82
2022/10/16 01:05:11;;;;;;;6.70;1.50;;;11.50;99.90;;;;;;5111005;28;20036;-81
2022/10/16 01:07:44;;;;;;;2.70;1.30;;;11.50;99.90;;;;;;5110865;28;20123;-81
2022/10/16 01:10:21;;;;;;;6.95;1.60;;;11.50;99.90;;;;;;5127441;28;20052;-81
2022/10/16 01:13:06;;;;;;;4.65;1.20;;;11.60;99.90;;;;;;5110464;28;20040;-81
2022/10/16 01:15:44;;;;;;;4.57;1.63;;;11.50;99.90;;;;;;5110540;28;20036;-82
2022/10/16 01:18:35;;;;;;;5.18;1.35;;;11.50;99.90;;;;;;5110939;28;20051;-82
2022/10/16 01:21:13;;;;;;;10.07;1.55;;;11.50;99.90;;;;;;5111042;28;20040;-82
2022/10/16 01:24:01;;;;;;;2.40;1.20;;;11.50;99.90;;;;;;5110449;28;20044;-82
2022/10/16 01:26:55;;;;;;;7.38;1.50;;;11.40;99.90;;;;;;5110628;28;20112;-82
2022/10/16 01:29:39;;;;;;;5.35;1.40;;;11.50;99.90;;;;;;5110560;28;20054;-82
2022/10/16 01:32:20;;;;;;;5.18;1.67;;;11.40;99.90;;;;;;5110371;28;20042;-82
2022/10/16 01:35:18;;;;;;;7.20;1.60;;;11.40;99.90;;;;;;5127694;28;20099;-81
2022/10/16 01:38:01;;;;;;;7.10;1.30;;;11.50;99.90;;;;;;5109841;28;20523;-81
2022/10/16 01:40:29;;;;;;;5.13;1.38;;;11.50;99.90;;;;;;5110659;28;20044;-82
2022/10/16 01:43:18;;;;;;;8.27;1.20;;;11.50;99.90;;;;;;5109902;28;20500;-81
2022/10/16 01:45:46;;;;;;;3.95;1.20;;;11.50;99.90;;;;;;5109442;28;20499;-82
2022/10/16 01:48:16;;;;;;;5.30;1.17;;;11.50;99.90;;;;;;5093212;28;20479;-82
2022/10/16 01:50:49;;;;;;;4.15;1.20;;;11.50;99.90;;;;;;5110228;28;20036;-82
2022/10/16 01:53:17;;;;;;;5.28;1.45;;;11.50;99.90;;;;;;5094149;28;20032;-82
2022/10/16 01:55:47;;;;;;;4.13;1.50;;;11.60;99.90;;;;;;5109631;28;20483;-81
2022/10/16 01:58:15;;;;;;;7.57;1.30;;;11.60;99.90;;;;;;5109830;28;20111;-82
2022/10/16 02:00:45;;;;;;;3.03;1.20;;;11.60;99.90;;;;;;5093231;28;20047;-81
2022/10/16 02:03:17;;;;;;;4.30;1.20;;;11.70;99.90;;;;;;5109947;28;20044;-81
2022/10/16 02:06:01;;;;;;;3.35;1.20;;;11.70;99.90;;;;;;5109332;28;20051;-81
2022/10/16 02:08:30;;;;;;;5.20;1.02;;;11.70;99.90;;;;;;5093166;28;20036;-82
2022/10/16 02:10:59;;;;;;;4.25;1.27;;;11.80;99.90;;;;;;5109790;28;20120;-82
2022/10/16 02:13:37;;;;;;;5.10;1.33;;;11.80;99.90;;;;;;5109833;28;20063;-82
2022/10/16 02:16:04;;;;;;;5.40;1.42;;;11.80;99.90;;;;;;5109726;28;20400;-83
2022/10/16 02:18:31;;;;;;;6.28;1.75;;;11.80;99.90;;;;;;5093362;28;20049;-82
2022/10/16 02:21:12;;;;;;;3.65;1.20;;;11.90;99.90;;;;;;5093077;28;20533;-82
2022/10/16 02:23:57;;;;;;;5.38;1.52;;;11.90;99.90;;;;;;5109677;28;20130;-82
2022/10/16 02:26:31;;;;;;;2.40;1.13;;;11.90;99.90;;;;;;5126703;28;20081;-82
2022/10/16 02:29:07;;;;;;;2.55;1.20;;;11.90;99.90;;;;;;5109268;28;20403;-82
2022/10/16 02:31:35;;;;;;;;;;;12.00;99.90;;;;;;5110156;28;20075;-82
2022/10/16 02:34:04;;;;;;;5.47;1.50;;;12.00;99.90;;;;;;5109660;28;19923;-81
2022/10/16 02:36:33;;;;;;;2.33;1.17;;;12.00;99.90;;;;;;5109526;28;20044;-81
2022/10/16 02:39:01;;;;;;;2.63;1.20;;;12.00;99.90;;;;;;5109308;28;20862;-81
2022/10/16 02:41:27;;;;;;;5.03;1.30;;;12.00;99.90;;;;;;5092966;28;20047;-82
2022/10/16 02:43:54;;;;;;;3.88;1.40;;;12.00;99.90;;;;;;5083945;28;20052;-82
2022/10/16 02:46:22;;;;;;;5.88;1.50;;;12.10;99.90;;;;;;5089150;28;20049;-81
2022/10/16 02:48:48;;;;;;;4.05;1.42;;;12.10;99.90;;;;;;5105609;28;20067;-82
2022/10/16 02:51:15;;;;;;;3.92;1.38;;;12.10;99.90;;;;;;5072532;28;20141;-82
2022/10/16 02:53:42;;;;;;;7.88;2.05;;;12.10;99.90;;;;;;5056338;28;20493;-82
2022/10/16 02:56:08;;;;;;;5.70;1.42;;;12.10;99.90;;;;;;5056773;28;20029;-82
2022/10/16 02:58:35;;;;;;;3.42;1.13;;;12.00;99.90;;;;;;5072289;28;20048;-81
2022/10/16 03:01:02;;;;;;;6.00;1.40;;;12.10;99.90;;;;;;5072223;28;20141;-81
2022/10/16 03:03:28;;;;;;;3.80;1.40;;;12.10;99.90;;;;;;5093398;28;20467;-82
2022/10/16 03:05:55;;;;;;;6.57;1.48;;;11.80;99.90;;;;;;5109030;28;20500;-81
2022/10/16 03:08:24;;;;;;;5.20;1.55;;;12.10;99.90;;;;;;5088182;28;20028;-81
2022/10/16 03:10:51;;;;;;;8.63;1.55;;;12.10;99.90;;;;;;5104418;28;20412;-82
2022/10/16 03:13:20;;;;;;;3.92;1.35;;;12.10;99.90;;;;;;5126137;28;20068;-82
2022/10/16 03:15:47;;;;;;;4.63;1.45;;;12.10;99.90;;;;;;5092219;28;20044;-82
2022/10/16 03:18:14;;;;;;;2.95;1.25;;;12.10;99.90;;;;;;5111981;28;20097;-82
2022/10/16 03:20:43;;;;;;;4.93;1.10;;;12.10;99.90;;;;;;5096643;28;20044;-81
2022/10/16 03:23:09;;;;;;;4.18;1.35;;;12.10;99.90;;;;;;5112730;28;20032;-82
2022/10/16 03:25:36;;;;;;;2.25;1.20;;;12.10;99.90;;;;;;5079467;28;20048;-81
2022/10/16 03:28:03;;;;;;;2.50;1.10;;;12.20;99.90;;;;;;5096301;28;20046;-81
2022/10/16 03:30:30;;;;;;;3.92;1.42;;;12.10;99.90;;;;;;5096187;28;20036;-81
2022/10/16 03:32:57;;;;;;;3.70;1.33;;;12.10;99.90;;;;;;5112297;28;20503;-81
2022/10/16 03:35:24;;;;;;;3.03;1.40;;;12.10;99.90;;;;;;5096248;28;20128;-81
2022/10/16 03:37:51;;;;;;;3.08;0.93;;;12.20;99.90;;;;;;5096100;28;20048;-81
2022/10/16 03:40:18;;;;;;;3.28;1.27;;;12.10;99.90;;;;;;5095811;28;20480;-81
2022/10/16 03:42:45;;;;;;;5.43;1.35;;;12.10;99.90;;;;;;5079468;28;20047;-81
2022/10/16 03:45:12;;;;;;;3.05;1.27;;;12.10;99.90;;;;;;5112007;28;20051;-81
2022/10/16 03:47:38;;;;;;;3.33;1.35;;;12.20;99.90;;;;;;5091907;28;20044;-81
2022/10/16 03:50:05;;;;;;;4.13;1.60;;;12.20;99.90;;;;;;5075282;28;20076;-81
2022/10/16 03:52:32;;;;;;;3.92;1.60;;;12.10;99.90;;;;;;5075358;28;20041;-81
2022/10/16 03:54:59;;;;;;;6.57;1.42;;;12.10;99.90;;;;;;5075488;28;20390;-81
2022/10/16 03:57:26;;;;;;;4.80;1.60;;;12.10;99.90;;;;;;5059237;28;20045;-81
2022/10/16 03:59:52;;;;;;;6.18;1.40;;;12.10;99.90;;;;;;5091782;28;20044;-81
2022/10/16 04:02:19;;;;;;;2.22;1.13;;;12.10;99.90;;;;;;5100101;28;20492;-81
2022/10/16 04:04:46;;;;;;;4.15;1.40;;;12.10;99.90;;;;;;5095291;28;20042;-81
2022/10/16 04:07:12;;;;;;;6.00;1.38;;;12.10;99.90;;;;;;5095420;28;20039;-81
2022/10/16 04:09:39;;;;;;;5.53;1.35;;;12.10;99.90;;;;;;5095071;28;20059;-82
2022/10/16 04:12:06;;;;;;;3.80;1.42;;;12.10;99.90;;;;;;5112037;28;20051;-81
2022/10/16 04:14:33;;;;;;;6.38;1.30;;;12.00;99.90;;;;;;5095220;28;20503;-81
2022/10/16 04:16:59;;;;;;;6.85;1.50;;;12.00;99.90;;;;;;5078557;28;20086;-81
2022/10/16 04:19:26;;;;;;;3.88;1.15;;;12.00;99.90;;;;;;5095372;28;20036;-81
2022/10/16 04:21:53;;;;;;;3.28;1.35;;;12.00;99.90;;;;;;5078919;28;20040;-81
2022/10/16 04:24:19;;;;;;;3.45;1.33;;;11.90;99.90;;;;;;5078246;28;20051;-82
2022/10/16 04:26:46;;;;;;;2.83;1.33;;;12.00;99.90;;;;;;5094653;28;20089;-82
2022/10/16 04:29:12;;;;;;;4.97;1.38;;;11.90;99.90;;;;;;5111112;28;20047;-82
2022/10/16 04:31:39;;;;;;;4.80;1.33;;;11.90;99.90;;;;;;5094808;28;20044;-82
2022/10/16 04:34:06;;;;;;;4.40;1.20;;;11.90;99.90;;;;;;5094802;28;20044;-83
2022/10/16 04:36:32;;;;;;;2.97;1.20;;;11.90;99.90;;;;;;5091037;28;20028;-82
2022/10/16 04:38:59;;;;;;;5.70;1.60;;;11.90;99.90;;;;;;5057655;28;20047;-81
2022/10/16 04:41:26;;;;;;;3.55;1.42;;;11.80;99.90;;;;;;5091396;28;20036;-82
2022/10/16 04:43:52;;;;;;;3.45;1.20;;;11.80;99.90;;;;;;5058415;28;20036;-81
2022/10/16 04:46:19;;;;;;;3.30;1.38;;;11.80;99.90;;;;;;5074317;28;20044;-81
2022/10/16 04:48:46;;;;;;;5.05;1.40;;;11.80;99.90;;;;;;5085100;28;20504;-82
2022/10/16 04:51:13;;;;;;;3.70;1.17;;;11.90;99.90;;;;;;5094362;28;20036;-81
2022/10/16 04:53:40;;;;;;;3.20;1.33;;;11.90;99.90;;;;;;5094843;28;20032;-81
2022/10/16 04:56:06;;;;;;;6.38;1.30;;;11.90;99.90;;;;;;5094712;28;20039;-81
2022/10/16 04:58:33;;;;;;;6.20;1.33;;;11.90;99.90;;;;;;5110998;28;20079;-81
2022/10/16 05:01:00;;;;;;;6.00;1.30;;;11.90;99.90;;;;;;5093968;28;20047;-81
2022/10/16 05:03:26;;;;;;;3.03;1.30;;;11.90;99.90;;;;;;5094536;28;20040;-81
2022/10/16 05:05:53;;;;;;;5.50;1.35;;;11.90;99.90;;;;;;5110852;28;20036;-81
2022/10/16 05:08:20;;;;;;;3.90;1.50;;;11.90;99.90;;;;;;5110864;28;20036;-81
2022/10/16 05:10:47;;;;;;;4.38;1.30;;;11.90;99.90;;;;;;5089798;28;20057;-81
2022/10/16 05:13:13;;;;;;;4.82;1.70;;;12.00;99.90;;;;;;5073810;28;20037;-81
2022/10/16 05:15:40;;;;;;;3.22;1.33;;;12.00;99.90;;;;;;5090522;28;20036;-82
2022/10/16 05:18:08;;;;;;;10.18;1.80;;;12.00;99.90;;;;;;5090406;28;20036;-81
2022/10/16 05:20:35;;;;;;;2.45;1.30;;;12.10;99.90;;;;;;5090455;28;20040;-82
2022/10/16 05:23:01;;;;;;;3.03;1.17;;;12.10;99.90;;;;;;5074947;28;20042;-81
2022/10/16 05:25:28;;;;;;;3.10;1.25;;;12.10;99.90;;;;;;5090183;28;20052;-81
2022/10/16 05:27:55;;;;;;;3.05;1.38;;;12.10;99.90;;;;;;5073799;28;20042;-81
2022/10/16 05:30:22;;;;;;;3.63;1.30;;;12.10;99.90;;;;;;5090204;28;20037;-81
2022/10/16 05:32:49;;;;;;;3.88;1.55;;;12.10;99.90;;;;;;5057666;28;20041;-81
2022/10/16 05:35:17;;;;;;;2.63;1.13;;;12.20;99.90;;;;;;5090140;28;20041;-81
2022/10/16 05:37:47;;;;;;;4.55;1.50;;;12.20;99.90;;;;;;5090502;28;20514;-81
2022/10/16 05:40:14;;;;;;;5.35;1.33;;;12.20;99.90;;;;;;5089177;28;20097;-81
2022/10/16 05:42:41;;;;;;;4.53;1.40;;;12.20;99.90;;;;;;5073101;28;20453;-82
2022/10/16 05:45:10;;;;;;;3.65;1.30;;;12.20;99.90;;;;;;5089622;28;20036;-81
2022/10/16 05:47:37;;;;;;;5.30;1.65;;;12.20;99.90;;;;;;5107372;28;20514;-81
2022/10/16 05:50:04;;;;;;;3.70;1.58;;;12.20;99.90;;;;;;5086846;28;20450;-82
2022/10/16 05:52:31;;;;;;;3.55;1.70;;;12.10;99.90;;;;;;5064114;28;20024;-81
2022/10/16 05:54:58;;;;;;;3.47;1.45;;;12.20;99.90;;;;;;5093224;28;20381;-82
2022/10/16 05:57:27;;;;;;;4.75;1.90;;;12.10;99.90;;;;;;5076403;28;20165;-81
2022/10/16 05:59:54;;;;;;;7.47;1.80;;;12.20;99.90;;;;;;5092648;28;20488;-81
2022/10/16 06:02:21;;;;;;;5.53;1.73;;;12.20;99.90;;;;;;5064136;28;20044;-81
2022/10/16 06:04:48;;;;;;;3.63;1.40;;;12.10;99.90;;;;;;5105664;28;20550;-81
2022/10/16 06:07:14;;;;;;;3.05;1.40;;;12.20;99.90;;;;;;5092763;28;20128;-81
2022/10/16 06:09:41;;;;;;;2.50;1.27;;;12.20;99.90;;;;;;5069428;28;20094;-82
2022/10/16 06:12:08;;;;;;;10.75;1.67;;;12.20;99.90;;;;;;5072702;28;20475;-81
2022/10/16 06:14:35;;;;;;;3.00;1.42;;;12.20;99.90;;;;;;5086942;28;20536;-82
2022/10/16 06:17:01;;;;;;;3.80;1.50;;;12.20;99.90;;;;;;5105043;28;20043;-82
2022/10/16 06:19:28;;;;;;;2.72;1.42;;;12.20;99.90;;;;;;5093141;28;20400;-82
2022/10/16 06:21:57;;;;;;;3.65;1.45;;;12.20;99.90;;;;;;5109344;28;20048;-82
2022/10/16 06:24:25;;;;;;;3.15;1.33;;;12.20;99.90;;;;;;5093314;28;20047;-82
2022/10/16 06:26:51;;;;;;;4.65;1.55;;;12.20;99.90;;;;;;5109455;28;20040;-83
2022/10/16 06:29:18;;;;;;;4.97;1.63;;;12.20;99.90;;;;;;5075764;28;20047;-82
2022/10/16 06:31:45;;;;;;;4.95;1.60;;;12.20;99.90;;;;;;5092626;28;20117;-82
2022/10/16 06:34:11;;;;;;;2.65;1.35;;;12.20;99.90;;;;;;5092615;28;20462;-82
2022/10/16 06:36:39;;;;;;;3.70;1.80;;;12.20;99.90;;;;;;5092486;28;20395;-83
2022/10/16 06:39:07;;;;;;;3.30;1.60;;;12.20;99.90;;;;;;5092500;28;20040;-82
2022/10/16 06:41:34;;;;;;;3.92;1.60;;;12.20;99.90;;;;;;5088910;28;20040;-82
2022/10/16 06:44:01;;;;;;;5.40;1.92;;;12.20;99.90;;;;;;5062534;28;20040;-82
2022/10/16 06:46:28;;;;;;;5.18;1.50;;;12.20;99.90;;;;;;5092473;28;20036;-82
2022/10/16 06:48:55;;;;;;;4.68;1.50;;;12.20;99.90;;;;;;5092547;28;20096;-82
2022/10/16 06:51:24;;;;;;;4.43;1.80;;;12.30;99.90;;;;;;5078312;28;20393;-82
2022/10/16 06:53:58;;;;;;;4.60;1.70;;;12.30;99.90;;;;;;5122911;28;20032;-82
2022/10/16 06:56:26;;;;;;;6.65;1.48;;;12.40;99.90;;;;;;5103435;28;20043;-83
2022/10/16 06:58:54;;;;;;;3.08;1.55;;;12.40;99.90;;;;;;5088544;28;20097;-83
2022/10/16 07:01:23;;;;;;;6.15;1.80;;;12.40;99.90;;;;;;5093707;28;20131;-82
2022/10/16 07:03:50;;;;;;;5.03;1.92;;;12.40;99.90;;;;;;5113339;28;20040;-83
2022/10/16 07:06:19;;;;;;;4.97;1.48;;;12.40;99.90;;;;;;5096267;28;20415;-83
2022/10/16 07:08:47;;;;;;;2.78;1.30;;;12.30;99.90;;;;;;5129802;28;20048;-82
2022/10/16 07:11:17;;;;;;;4.43;1.50;;;12.40;99.90;;;;;;5113321;28;20036;-82
2022/10/16 07:13:46;;;;;;;5.97;1.40;;;12.50;99.90;;;;;;5130445;28;20040;-82
2022/10/16 07:16:16;;;;;;;5.43;1.65;;;12.50;99.90;;;;;;5096504;28;20035;-82
2022/10/16 07:18:45;;;;;;;3.20;1.40;;;12.60;99.90;;;;;;5112981;28;20124;-83
2022/10/16 07:21:13;;;;;;;3.75;1.45;;;12.60;99.90;;;;;;5129707;28;20050;-83
2022/10/16 07:23:40;;;;;;;3.20;1.48;;;12.70;99.90;;;;;;5118373;28;20040;-83
2022/10/16 07:26:10;;;;;;;6.55;1.58;;;12.80;99.90;;;;;;5096280;28;20097;-82
2022/10/16 07:28:39;;;;;;;3.25;1.38;;;12.80;99.90;;;;;;5092799;28;20032;-82
2022/10/16 07:31:10;;;;;;;7.85;1.58;;;12.90;99.90;;;;;;5127031;28;20051;-83
2022/10/16 07:33:39;;;;;;;2.85;1.30;;;12.90;99.90;;;;;;5109320;28;20093;-82
2022/10/16 07:36:06;;;;;;;5.00;1.40;;;12.90;99.90;;;;;;5111234;28;20040;-83
2022/10/16 07:38:34;;;;;;;4.82;1.23;;;12.90;99.90;;;;;;5108615;28;20040;-83
2022/10/16 07:41:04;;;;;;;3.20;1.58;;;12.90;99.90;;;;;;5112148;28;20127;-83
2022/10/16 07:43:31;;;;;;;5.03;1.40;;;13.00;99.90;;;;;;5111726;28;20047;-82
2022/10/16 07:45:58;;;;;;;3.15;1.80;;;13.00;99.90;;;;;;5128345;28;20104;-82
2022/10/16 07:48:28;;;;;;;2.72;1.30;;;13.00;99.90;;;;;;5095047;28;20127;-82
2022/10/16 07:51:03;;;;;;;5.22;1.20;;;13.10;99.90;;;;;;5111664;28;20050;-82
2022/10/16 07:53:30;;;;;;;5.03;1.40;;;13.10;99.90;;;;;;5095733;28;20489;-82
2022/10/16 07:56:02;;;;;;;2.20;1.10;;;13.10;99.90;;;;;;5111948;28;20044;-82
2022/10/16 07:58:29;;;;;;;2.75;1.20;;;13.20;99.90;;;;;;5111120;28;20055;-82
2022/10/16 08:00:56;;;;;;;4.53;1.42;;;13.20;99.90;;;;;;5111538;28;20036;-82
2022/10/16 08:03:24;;;;;;;4.65;1.13;;;13.20;99.90;;;;;;5128022;28;20039;-82
2022/10/16 08:05:51;;;;;;;1.98;1.08;;;13.20;99.90;;;;;;5093156;28;20132;-82
2022/10/16 08:08:19;;;;;;;2.55;1.20;;;13.20;99.90;;;;;;5111592;28;20082;-83
2022/10/16 08:10:45;;;;;;;4.90;1.30;;;13.30;99.90;;;;;;5127888;28;20055;-83
2022/10/16 08:13:14;;;;;;;5.03;1.25;;;13.30;99.90;;;;;;5094869;28;20039;-82
2022/10/16 08:15:42;;;;;;;4.90;1.35;;;13.30;99.90;;;;;;5076378;28;20044;-83
2022/10/16 08:18:10;;;;;;;4.43;1.35;;;13.30;99.90;;;;;;5111486;28;20063;-83
2022/10/16 08:20:37;;;;;;;2.63;1.05;;;13.30;99.90;;;;;;5111269;28;20043;-82
2022/10/16 08:23:05;;;;;;;3.38;1.50;;;13.30;99.90;;;;;;5092258;28;20044;-83
2022/10/16 08:25:33;;;;;;;6.85;1.30;;;13.30;99.90;;;;;;5124837;28;20446;-83
2022/10/16 08:28:00;;;;;;;3.25;1.48;;;13.30;99.90;;;;;;5106252;28;20115;-82
2022/10/16 08:30:27;;;;;;;3.65;1.52;;;13.30;99.90;;;;;;5094088;28;20122;-82
2022/10/16 08:32:54;;;;;;;2.88;1.20;;;13.30;99.90;;;;;;5108043;28;20075;-82
2022/10/16 08:35:20;;;;;;;3.80;1.30;;;13.30;99.90;;;;;;5110798;28;20024;-83
2022/10/16 08:37:47;;;;;;;3.22;1.00;;;13.30;99.90;;;;;;5086759;28;20101;-83
2022/10/16 08:40:23;;;;;;;3.25;1.23;;;13.40;99.90;;;;;;5110695;28;20065;-83
2022/10/16 08:43:14;;;;;;;4.53;1.25;;;13.50;99.90;;;;;;5127224;28;20115;-82
2022/10/16 08:45:49;;;;;;;8.30;1.38;;;13.50;99.90;;;;;;5098293;28;20381;-82
2022/10/16 08:48:33;;;;;;;4.93;1.20;;;13.50;99.90;;;;;;5110322;28;20044;-83
2022/10/16 08:51:03;;;;;;;3.72;1.25;;;13.60;99.90;;;;;;5098574;28;20109;-83
2022/10/16 08:53:41;;;;;;;4.78;1.10;;;13.60;99.90;;;;;;5116732;28;20395;-83
2022/10/16 08:56:08;;;;;;;6.55;1.40;;;13.70;99.90;;;;;;5127526;28;20036;-83
2022/10/16 08:58:35;;;;;;;3.00;0.95;;;13.70;99.90;;;;;;5077297;28;20046;-83
2022/10/16 09:01:10;;;;;;;2.90;1.15;;;13.80;99.90;;;;;;5090376;28;20631;-83
2022/10/16 09:03:52;;;;;;;3.67;1.23;;;13.90;99.90;;;;;;5098279;28;20492;-83
2022/10/16 09:06:45;;;;;;;9.93;1.05;;;13.90;99.90;;;;;;5107177;28;20962;-84
2022/10/16 09:09:40;;;;;;;5.00;1.13;;;14.00;99.90;;;;;;5108214;28;20044;-83
2022/10/16 09:12:28;;;;;;;4.95;1.20;;;14.00;99.90;;;;;;5116582;28;20033;-83
2022/10/16 09:15:27;;;;;;;4.03;1.20;;;14.00;99.90;;;;;;5089722;28;20123;-82
2022/10/16 09:18:20;;;;;;;4.45;1.20;;;14.00;99.90;;;;;;5108768;28;20115;-82
2022/10/16 09:20:51;;;;;;;1.48;0.70;;;14.20;99.90;;;;;;5106508;28;20095;-83
2022/10/16 09:23:30;;;;;;;3.72;0.80;;;14.30;99.90;;;;;;5107784;28;20514;-85
2022/10/16 09:25:59;;;;;;;1.38;0.75;;;14.40;99.90;;;;;;5110288;28;20112;-83
2022/10/16 09:28:26;;;;;;;4.47;0.90;;;14.40;99.90;;;;;;5075258;28;20044;-83
2022/10/16 09:30:53;;;;;;;3.53;0.80;;;14.50;99.90;;;;;;5108205;28;20036;-81
2022/10/16 09:33:24;;;;;;;4.53;0.90;;;14.60;99.90;;;;;;5109939;28;20118;-82
2022/10/16 09:35:54;;;;;;;4.10;1.02;;;14.70;99.90;;;;;;5126419;28;20208;-81
2022/10/16 09:38:27;;;;;;;3.10;0.82;;;14.70;99.90;;;;;;5109888;28;20054;-83
2022/10/16 09:41:18;;;;;;;2.15;0.98;;;14.70;99.90;;;;;;5125922;28;20099;-81
2022/10/16 09:43:50;;;;;;;2.00;0.90;;;14.70;99.90;;;;;;5085984;28;20052;-83
2022/10/16 09:46:43;;;;;;;6.97;1.20;;;14.80;99.90;;;;;;5123614;28;20032;-82
2022/10/16 09:49:23;;;;;;;3.20;0.80;;;14.80;99.90;;;;;;5089280;28;20098;-83
2022/10/16 09:51:50;;;;;;;4.95;1.00;;;14.80;99.90;;;;;;5089402;28;20045;-83
2022/10/16 09:54:19;;;;;;;5.68;0.90;;;14.80;99.90;;;;;;5107018;28;20084;-82
2022/10/16 09:56:51;;;;;;;2.58;0.90;;;14.90;99.90;;;;;;5109069;28;20400;-82
2022/10/16 09:59:20;;;;;;;4.53;1.17;;;14.90;99.90;;;;;;5096921;28;20558;-83
2022/10/16 10:01:52;;;;;;;1.88;0.95;;;15.00;99.90;;;;;;5092922;28;20044;-82
2022/10/16 10:04:25;;;;;;;2.88;1.00;;;15.10;99.90;;;;;;5125977;28;20173;-82
2022/10/16 10:06:55;;;;;;;2.25;0.80;;;15.10;99.90;;;;;;5109044;28;20036;-82
2022/10/16 10:09:24;;;;;;;6.22;1.25;;;15.10;99.90;;;;;;5108878;28;20145;-82
2022/10/16 10:11:57;;;;;;;3.33;1.35;;;15.20;99.90;;;;;;5102900;28;20032;-83
2022/10/16 10:14:27;;;;;;;9.60;1.30;;;15.10;99.90;;;;;;5108658;28;20063;-81
2022/10/16 10:17:05;;;;;;;6.10;1.23;;;15.10;99.90;;;;;;5108799;28;20040;-82
2022/10/16 10:19:45;;;;;;;6.07;1.15;;;15.00;99.90;;;;;;5108886;28;20505;-82
2022/10/16 10:22:24;;;;;;;10.13;1.25;;;15.00;99.90;;;;;;5126072;28;20488;-82
2022/10/16 10:24:56;;;;;;;4.10;1.10;;;15.10;99.90;;;;;;5108733;28;20057;-82
2022/10/16 10:27:39;;;;;;;4.82;1.00;;;15.10;99.90;;;;;;5108896;28;20043;-82
2022/10/16 10:30:37;;;;;;;4.90;1.00;;;15.30;99.90;;;;;;5108905;28;20500;-81
2022/10/16 10:33:20;;;;;;;5.45;1.25;;;15.40;99.90;;;;;;5109022;28;20480;-82
2022/10/16 10:35:59;;;;;;;8.25;1.10;;;15.60;99.90;;;;;;5125715;28;20036;-82
2022/10/16 10:38:52;;;;;;;8.90;1.23;;;15.70;99.90;;;;;;5126118;28;20902;-82
2022/10/16 10:41:56;;;;;;;3.97;0.90;;;15.70;99.90;;;;;;5125752;28;20035;-82
2022/10/16 10:44:41;;;;;;;4.18;1.00;;;15.90;99.90;;;;;;5109438;28;20040;-82
2022/10/16 10:47:30;;;;;;;5.97;1.13;;;16.00;99.90;;;;;;5109152;28;20841;-82
2022/10/16 10:50:06;;;;;;;5.53;0.85;;;15.90;99.90;;;;;;5100609;28;20048;-82
2022/10/16 10:52:39;;;;;;;6.90;1.55;;;16.10;99.90;;;;;;5109168;28;20126;-82
2022/10/16 10:55:28;;;;;;;4.53;0.98;;;16.00;99.90;;;;;;5125731;28;20044;-82
2022/10/16 10:58:38;;;;;;;8.88;1.33;;;16.20;99.90;;;;;;5109090;28;20040;-82
2022/10/16 11:01:17;;;;;;;5.65;1.10;;;16.10;99.90;;;;;;5070881;28;20080;-82
2022/10/16 11:03:57;;;;;;;5.05;1.33;;;16.00;99.90;;;;;;5087390;28;20047;-82
2022/10/16 11:06:39;;;;;;;6.32;0.98;;;16.00;99.90;;;;;;5096251;28;20495;-82
2022/10/16 11:09:27;;;;;;;6.18;1.23;;;16.00;99.90;;;;;;5108482;28;20048;-82
2022/10/16 11:12:31;;;;;;;2.97;0.90;;;15.80;99.90;;;;;;5108646;28;20492;-82
2022/10/16 11:15:39;;;;;;;5.68;1.05;;;15.80;99.90;;;;;;5109053;28;20034;-82
2022/10/16 11:18:15;;;;;;;3.20;0.98;;;15.70;99.90;;;;;;5050707;28;20087;-81
2022/10/16 11:20:54;;;;;;;4.90;1.05;;;15.80;99.90;;;;;;5031295;28;20119;-82
2022/10/16 11:23:25;;;;;;;6.18;1.23;;;15.80;99.90;;;;;;5074117;28;20071;-82
2022/10/16 11:25:55;;;;;;;8.13;1.30;;;15.80;99.90;;;;;;5105769;28;20158;-82
2022/10/16 11:28:42;;;;;;;8.23;1.00;;;15.90;99.90;;;;;;5088386;28;20036;-82
2022/10/16 11:31:13;;;;;;;3.35;0.90;;;15.80;99.90;;;;;;5091934;28;20039;-82
2022/10/16 11:34:25;;;;;;;5.10;0.98;;;15.60;99.90;;;;;;5108824;28;20406;-82
2022/10/16 11:37:07;;;;;;;5.43;0.95;;;15.50;99.90;;;;;;5092151;28;20048;-81
2022/10/16 11:39:34;;;;;;;4.97;1.05;;;15.40;99.90;;;;;;5129225;28;20048;-82
2022/10/16 11:42:26;;;;;;;8.68;1.55;;;15.30;99.90;;;;;;5112301;28;20041;-82
2022/10/16 11:45:17;;;;;;;5.32;1.10;;;15.40;99.90;;;;;;5112227;28;20044;-82
2022/10/16 11:47:50;;;;;;;5.82;1.17;;;15.50;99.90;;;;;;5112454;28;20119;-82
2022/10/16 11:50:22;;;;;;;5.38;0.98;;;15.40;99.90;;;;;;5112126;28;20123;-82
2022/10/16 11:52:57;;;;;;;6.50;1.00;;;15.50;99.90;;;;;;5111608;28;20040;-81
2022/10/16 11:55:31;;;;;;;7.57;1.20;;;15.50;99.90;;;;;;5128779;28;20036;-82
2022/10/16 11:58:20;;;;;;;5.20;1.15;;;15.60;99.90;;;;;;5111301;28;20085;-82
2022/10/16 12:00:59;;;;;;;5.13;0.90;;;15.80;99.90;;;;;;5112251;28;20044;-82
2022/10/16 12:03:46;;;;;;;5.55;1.00;;;15.90;99.90;;;;;;5111690;28;20071;-82
2022/10/16 12:06:38;;;;;;;7.03;1.08;;;16.00;99.90;;;;;;5112066;28;20036;-82
2022/10/16 12:09:05;;;;;;;4.68;0.90;;;16.00;99.90;;;;;;5111208;28;20466;-82
2022/10/16 12:11:37;;;;;;;7.35;1.10;;;16.00;99.90;;;;;;5095272;28;20039;-82
2022/10/16 12:14:12;;;;;;;6.00;0.98;;;16.00;99.90;;;;;;5111336;28;20040;-82
2022/10/16 12:16:51;;;;;;;7.97;1.37;;;16.10;99.90;;;;;;5128611;28;20067;-82
2022/10/16 12:19:20;;;;;;;8.35;1.42;;;16.10;99.90;;;;;;5111821;28;20452;-82
2022/10/16 12:21:49;;;;;;;3.35;0.90;;;16.20;99.90;;;;;;5128206;28;20544;-82
2022/10/16 12:24:42;;;;;;;8.45;1.00;;;16.10;99.90;;;;;;5094724;28;20101;-82
2022/10/16 12:27:32;;;;;;;8.45;1.17;;;16.10;99.90;;;;;;5111138;28;20431;-82
2022/10/16 12:30:02;;;;;;;3.05;0.80;;;16.20;99.90;;;;;;5111110;28;20123;-82
2022/10/16 12:32:39;;;;;;;3.60;0.88;;;16.10;99.90;;;;;;5128391;28;20122;-82
2022/10/16 12:35:18;;;;;;;5.20;1.30;;;16.20;99.90;;;;;;5110980;28;20752;-82
2022/10/16 12:37:45;;;;;;;10.07;1.42;;;16.20;99.90;;;;;;5111433;28;20075;-82
2022/10/16 12:40:34;;;;;;;5.18;1.05;;;16.30;99.90;;;;;;5094425;28;20473;-82
2022/10/16 12:43:12;;;;;;;4.32;1.02;;;16.30;99.90;;;;;;5111127;28;20480;-82
2022/10/16 12:45:38;;;;;;;7.80;1.13;;;16.30;99.90;;;;;;5111355;28;20093;-82
2022/10/16 12:48:20;;;;;;;4.72;1.10;;;16.20;99.90;;;;;;5093766;28;20047;-82
2022/10/16 12:50:47;;;;;;;5.07;1.00;;;16.10;99.90;;;;;;5111043;28;20040;-82
2022/10/16 12:53:23;;;;;;;4.63;1.17;;;16.10;99.90;;;;;;5110714;28;20036;-82
2022/10/16 12:56:19;;;;;;;5.88;1.15;;;16.20;99.90;;;;;;5110899;28;20522;-82
2022/10/16 12:58:52;;;;;;;7.95;1.15;;;16.30;99.90;;;;;;5111291;28;20050;-81
2022/10/16 13:01:47;;;;;;;3.10;0.90;;;16.40;99.90;;;;;;5127445;28;20515;-81
2022/10/16 13:04:48;;;;;;;8.43;1.27;;;16.50;99.90;;;;;;5110512;28;20071;-81
2022/10/16 13:07:56;;;;;;;7.93;1.00;;;16.60;99.90;;;;;;5110373;28;20044;-81
2022/10/16 13:10:26;;;;;;;3.78;1.02;;;16.70;99.90;;;;;;5110146;28;20052;-82
2022/10/16 13:13:31;;;;;;;4.20;1.40;;;16.70;99.90;;;;;;5110736;28;20051;-81
2022/10/16 13:16:19;;;;;;;12.93;1.23;;;16.70;99.90;;;;;;5110399;28;20065;-81